Terminal Aerodrome Forecast
Issued by NWS Wichita, KS

Home | Current Version | Previous Version | Text Only | Print | Product List | Glossary On
Versions: 1 2 3 4 5 6 7 8 9 10 11 12 13 14 15 16 17 18 19 20 21
000
FTUS43 KICT 281100
TAFICT
TAF
KICT 281120Z 2812/2912 17008KT P6SM -RA BKN070
     FM281500 18014KT P6SM SCT100
     FM290100 17008KT P6SM SCT150
     FM290700 17007KT P6SM VCTS BKN070CB=

USA.gov is the U.S. government's official web portal to all federal, state and local government web resources and services.